Time;durP1;ratioP1;P1;durP2;ratioP2;P2;SDS_P1;SDS_P2;PMS_P1;PMS_P2;Temp;Humidity;BMP_temperature;BMP_pressure;BME280_temperature;BME280_humidity;BME280_pressure;Samples;Min_cycle;Max_cycle;Signal;HPM_P1;HPM_P2
2022/04/16 00:01:55;;;;;;;1.85;1.25;;;8.90;78.10;;;;;;5114822;28;20154;-70
2022/04/16 00:04:22;;;;;;;2.45;1.20;;;8.90;78.20;;;;;;5113867;28;20092;-70
2022/04/16 00:06:48;;;;;;;1.50;1.10;;;9.00;78.30;;;;;;5113944;28;20554;-70
2022/04/16 00:09:13;;;;;;;1.38;1.00;;;8.80;78.20;;;;;;5095871;28;20051;-70
2022/04/16 00:11:39;;;;;;;1.25;0.90;;;8.80;78.30;;;;;;5113452;28;20059;-69
2022/04/16 00:14:05;;;;;;;1.23;1.02;;;8.80;78.40;;;;;;5095523;28;20046;-69
2022/04/16 00:16:32;;;;;;;1.80;1.20;;;8.70;78.40;;;;;;5113785;28;20040;-70
2022/04/16 00:18:58;;;;;;;1.38;1.10;;;8.70;78.50;;;;;;5112887;28;20043;-69
2022/04/16 00:21:24;;;;;;;2.67;1.35;;;8.60;78.50;;;;;;5113194;28;20424;-70
2022/04/16 00:23:51;;;;;;;1.85;1.20;;;8.60;78.60;;;;;;5113586;28;20052;-70
2022/04/16 00:26:18;;;;;;;1.25;1.15;;;8.60;78.70;;;;;;5113571;28;20043;-69
2022/04/16 00:28:44;;;;;;;1.50;1.10;;;8.50;78.70;;;;;;5113966;28;20032;-69
2022/04/16 00:31:11;;;;;;;1.48;1.13;;;8.50;78.70;;;;;;5113921;28;21316;-70
2022/04/16 00:33:37;;;;;;;1.83;1.17;;;8.50;78.80;;;;;;5113303;28;20085;-70
2022/04/16 00:36:03;;;;;;;1.73;1.23;;;8.40;78.80;;;;;;5113342;28;20115;-69
2022/04/16 00:38:29;;;;;;;1.83;1.13;;;8.40;78.90;;;;;;5113930;28;20409;-70
2022/04/16 00:40:55;;;;;;;1.00;0.88;;;8.30;78.90;;;;;;5113651;28;20101;-69
2022/04/16 00:43:30;;;;;;;1.02;0.93;;;8.30;78.90;;;;;;5113311;28;20035;-69
2022/04/16 00:45:57;;;;;;;1.20;1.00;;;8.30;79.00;;;;;;5112606;28;20043;-69
2022/04/16 00:48:23;;;;;;;1.63;0.90;;;8.30;79.00;;;;;;5113134;28;20054;-69
2022/04/16 00:50:51;;;;;;;1.25;0.88;;;8.20;78.90;;;;;;5094963;28;20044;-69
2022/04/16 00:53:17;;;;;;;1.98;1.23;;;8.30;79.00;;;;;;5113603;28;20035;-69
2022/04/16 00:55:44;;;;;;;1.20;1.00;;;8.20;78.90;;;;;;5094850;28;20101;-70
2022/04/16 00:58:10;;;;;;;1.58;1.00;;;8.20;79.00;;;;;;5113586;28;20080;-70
2022/04/16 01:00:36;;;;;;;1.02;0.90;;;8.20;79.00;;;;;;5113265;28;20031;-70
2022/04/16 01:03:03;;;;;;;0.85;0.80;;;8.20;79.10;;;;;;5113619;28;20601;-70
2022/04/16 01:05:29;;;;;;;0.95;0.80;;;8.10;79.10;;;;;;5112980;28;20050;-70
2022/04/16 01:07:58;;;;;;;1.35;1.05;;;8.10;79.10;;;;;;5113076;28;20059;-70
2022/04/16 01:10:27;;;;;;;0.95;0.80;;;8.10;79.10;;;;;;5112970;28;20043;-69
2022/04/16 01:12:54;;;;;;;0.70;0.70;;;8.10;79.20;;;;;;5113559;28;20126;-69
2022/04/16 01:15:21;;;;;;;1.52;0.98;;;8.10;79.20;;;;;;5113001;28;20031;-69
2022/04/16 01:17:48;;;;;;;1.48;0.90;;;8.00;79.20;;;;;;5077889;28;20047;-70
2022/04/16 01:20:15;;;;;;;0.90;0.70;;;8.00;79.40;;;;;;5112497;28;20065;-70
2022/04/16 01:22:40;;;;;;;2.05;1.20;;;8.00;79.40;;;;;;5112744;28;20445;-69
2022/04/16 01:25:07;;;;;;;1.50;0.80;;;7.90;79.50;;;;;;5113443;28;20070;-70
2022/04/16 01:27:36;;;;;;;1.27;0.95;;;7.90;79.50;;;;;;5113252;28;20099;-70
2022/04/16 01:30:04;;;;;;;1.75;1.13;;;7.80;79.60;;;;;;5112931;28;20370;-70
2022/04/16 01:32:32;;;;;;;1.23;0.82;;;7.80;79.70;;;;;;5112165;28;20032;-70
2022/04/16 01:35:00;;;;;;;1.40;0.98;;;7.80;79.80;;;;;;5113162;28;20084;-70
2022/04/16 01:37:33;;;;;;;0.93;0.75;;;7.80;79.80;;;;;;5112592;28;20441;-69
2022/04/16 01:40:00;;;;;;;1.40;0.95;;;7.70;79.80;;;;;;5111387;28;20047;-70
2022/04/16 01:42:25;;;;;;;1.98;1.05;;;7.70;80.00;;;;;;5094187;28;20112;-72
2022/04/16 01:44:52;;;;;;;1.42;1.13;;;7.70;80.00;;;;;;5112797;28;20035;-69
2022/04/16 01:47:18;;;;;;;1.92;1.20;;;7.70;80.00;;;;;;5113095;28;20160;-70
2022/04/16 01:49:44;;;;;;;1.27;1.10;;;7.60;80.00;;;;;;5112465;28;20617;-69
2022/04/16 01:52:09;;;;;;;1.50;1.08;;;7.60;80.00;;;;;;5112399;28;20389;-70
2022/04/16 01:54:36;;;;;;;1.17;0.98;;;7.50;80.00;;;;;;5113002;28;20477;-69
2022/04/16 01:57:02;;;;;;;1.17;1.00;;;7.50;80.10;;;;;;5112503;28;20499;-69
2022/04/16 01:59:29;;;;;;;2.10;1.15;;;7.50;80.10;;;;;;5112538;28;20036;-69
2022/04/16 02:01:56;;;;;;;2.38;1.00;;;7.50;80.20;;;;;;5112290;28;20044;-69
2022/04/16 02:04:23;;;;;;;1.92;1.20;;;7.50;80.20;;;;;;5112260;28;20044;-70
2022/04/16 02:06:50;;;;;;;1.48;1.10;;;7.50;80.30;;;;;;5093815;28;20071;-70
2022/04/16 02:09:17;;;;;;;1.05;0.88;;;7.50;80.30;;;;;;5112245;28;20446;-70
2022/04/16 02:11:43;;;;;;;1.30;0.98;;;7.40;80.30;;;;;;5112135;28;20370;-70
2022/04/16 02:14:09;;;;;;;1.40;1.00;;;7.40;80.30;;;;;;5112182;28;20084;-70
2022/04/16 02:16:35;;;;;;;1.90;1.27;;;7.40;80.30;;;;;;5093973;28;20036;-71
2022/04/16 02:19:01;;;;;;;1.92;1.35;;;7.40;81.00;;;;;;5112101;28;20400;-71
2022/04/16 02:21:30;;;;;;;2.35;1.15;;;7.40;80.30;;;;;;5111922;28;20065;-71
2022/04/16 02:23:57;;;;;;;3.05;1.58;;;7.40;80.30;;;;;;5111942;28;20063;-71
2022/04/16 02:26:23;;;;;;;2.35;1.30;;;7.30;80.30;;;;;;5111942;28;20040;-71
2022/04/16 02:28:49;;;;;;;2.25;1.20;;;7.40;80.30;;;;;;5112418;28;20036;-71
2022/04/16 02:31:15;;;;;;;2.40;1.35;;;7.30;80.30;;;;;;5093770;28;20032;-69
2022/04/16 02:33:41;;;;;;;1.45;1.20;;;7.30;80.30;;;;;;5093553;28;20114;-71
2022/04/16 02:36:07;;;;;;;1.85;1.20;;;7.30;80.40;;;;;;5111802;28;20058;-71
2022/04/16 02:38:35;;;;;;;1.27;1.10;;;7.30;80.50;;;;;;5094084;28;20524;-71
2022/04/16 02:41:00;;;;;;;1.70;1.02;;;7.20;80.50;;;;;;5111888;28;20100;-71
2022/04/16 02:43:26;;;;;;;2.40;1.20;;;7.20;80.50;;;;;;5113562;28;20040;-71
2022/04/16 02:48:29;;;;;;;1.73;1.20;;;7.20;80.60;;;;;;5115294;28;20035;-71
2022/04/16 02:50:54;;;;;;;1.30;0.80;;;7.20;80.60;;;;;;5115656;28;20036;-69
2022/04/16 02:53:20;;;;;;;2.50;1.27;;;7.10;80.60;;;;;;5079914;28;20032;-71
2022/04/16 02:55:46;;;;;;;2.70;1.40;;;7.10;80.70;;;;;;5115484;28;20054;-70
2022/04/16 02:58:13;;;;;;;1.50;1.00;;;7.10;80.70;;;;;;5096798;28;20465;-70
2022/04/16 03:00:39;;;;;;;2.15;1.42;;;7.10;80.80;;;;;;5114935;28;20512;-70
2022/04/16 03:03:05;;;;;;;1.58;1.10;;;7.10;80.80;;;;;;5114747;28;20074;-69
2022/04/16 03:05:31;;;;;;;3.08;1.42;;;7.20;80.80;;;;;;5115085;28;20063;-69
2022/04/16 03:07:57;;;;;;;1.90;1.30;;;7.00;80.80;;;;;;5097437;28;20035;-69
2022/04/16 03:10:23;;;;;;;1.85;1.33;;;7.00;80.90;;;;;;5114860;28;20381;-69
2022/04/16 03:12:51;;;;;;;1.42;1.10;;;7.00;80.90;;;;;;5115006;28;20039;-69
2022/04/16 03:17:54;;;;;;;1.83;1.23;;;7.00;81.00;;;;;;5114736;28;20039;-69
2022/04/16 03:20:20;;;;;;;2.17;1.20;;;6.90;81.00;;;;;;5096572;28;20035;-72
2022/04/16 03:22:46;;;;;;;2.05;1.20;;;6.90;81.10;;;;;;5115188;28;20195;-71
2022/04/16 03:25:12;;;;;;;2.70;1.58;;;6.90;81.10;;;;;;5114875;28;20035;-69
2022/04/16 03:27:38;;;;;;;1.77;1.20;;;6.90;81.10;;;;;;5114615;28;20070;-70
2022/04/16 03:30:05;;;;;;;2.63;1.33;;;6.90;81.10;;;;;;5114544;28;20042;-69
2022/04/16 03:32:31;;;;;;;2.53;1.50;;;6.90;81.20;;;;;;5096322;28;20070;-69
2022/04/16 03:34:57;;;;;;;2.58;1.40;;;6.80;81.20;;;;;;5114366;28;20114;-70
2022/04/16 03:37:27;;;;;;;1.35;1.02;;;6.80;81.20;;;;;;5097152;28;20082;-69
2022/04/16 03:39:53;;;;;;;1.58;1.08;;;6.80;81.30;;;;;;5096928;28;20035;-70
2022/04/16 03:42:19;;;;;;;1.63;1.13;;;6.80;81.30;;;;;;5114494;28;20370;-70
2022/04/16 03:44:45;;;;;;;1.35;1.05;;;6.80;81.30;;;;;;5114807;28;20039;-70
2022/04/16 03:47:11;;;;;;;2.30;1.15;;;6.80;81.40;;;;;;5095994;28;20096;-70
2022/04/16 03:49:37;;;;;;;2.20;1.20;;;6.80;81.40;;;;;;5114399;28;20126;-70
2022/04/16 03:52:04;;;;;;;2.47;1.33;;;6.80;81.40;;;;;;5114140;28;20063;-70
2022/04/16 04:02:29;;;;;;;2.90;1.13;;;6.70;81.50;;;;;;5114248;28;20059;-70
2022/04/16 04:04:55;;;;;;;1.73;1.17;;;6.70;81.50;;;;;;5112726;28;20028;-70
2022/04/16 04:07:21;;;;;;;2.80;1.55;;;6.70;81.50;;;;;;5114593;28;20047;-70
2022/04/16 04:09:47;;;;;;;2.67;1.45;;;6.70;81.60;;;;;;5114331;28;20031;-70
2022/04/16 04:12:15;;;;;;;1.40;1.15;;;6.70;81.70;;;;;;5114174;28;20516;-69
2022/04/16 04:14:43;;;;;;;2.13;1.27;;;6.80;81.70;;;;;;5114306;28;20039;-70
2022/04/16 04:17:09;;;;;;;2.47;1.40;;;6.70;81.70;;;;;;5112926;28;20126;-70
2022/04/16 04:19:37;;;;;;;2.17;1.30;;;6.70;81.70;;;;;;5095833;28;20028;-70
2022/04/16 04:22:05;;;;;;;1.67;1.15;;;6.60;81.70;;;;;;5095778;28;20047;-70
2022/04/16 04:24:32;;;;;;;3.28;1.48;;;6.70;81.80;;;;;;5114382;28;20123;-70
2022/04/16 04:26:58;;;;;;;2.70;1.50;;;6.70;81.80;;;;;;5095760;28;20046;-70
2022/04/16 04:29:24;;;;;;;2.53;1.30;;;6.70;81.80;;;;;;5114173;28;20047;-70
2022/04/16 04:31:50;;;;;;;1.40;1.10;;;6.70;81.80;;;;;;5113971;28;20039;-70
2022/04/16 04:34:16;;;;;;;3.15;1.50;;;6.70;81.80;;;;;;5114227;28;20039;-70
2022/04/16 04:36:41;;;;;;;2.42;1.38;;;6.70;81.80;;;;;;5113834;28;20031;-70
2022/04/16 04:39:07;;;;;;;2.95;1.45;;;6.70;81.80;;;;;;5113769;28;20039;-70
2022/04/16 04:41:33;;;;;;;2.30;1.40;;;6.70;81.90;;;;;;5095888;28;20046;-70
2022/04/16 04:43:59;;;;;;;2.83;1.40;;;6.70;81.90;;;;;;5095138;28;20466;-70
2022/04/16 04:46:25;;;;;;;2.97;1.60;;;6.70;81.90;;;;;;5095224;28;20039;-70
2022/04/16 04:48:50;;;;;;;2.75;1.52;;;6.70;81.90;;;;;;5114002;28;20036;-71
2022/04/16 04:51:16;;;;;;;2.70;1.50;;;6.70;82.00;;;;;;5113853;28;20043;-70
2022/04/16 04:53:42;;;;;;;1.80;1.40;;;6.70;82.00;;;;;;5113972;28;20070;-71
2022/04/16 04:56:08;;;;;;;2.00;1.23;;;6.80;82.00;;;;;;5095848;28;20180;-71
2022/04/16 04:58:33;;;;;;;2.65;1.58;;;6.70;82.00;;;;;;5113594;28;20035;-71
2022/04/16 05:00:59;;;;;;;2.50;1.38;;;6.70;82.00;;;;;;5113804;28;20047;-70
2022/04/16 05:03:25;;;;;;;2.88;1.58;;;6.70;82.00;;;;;;5113679;28;20036;-70
2022/04/16 05:05:51;;;;;;;2.88;1.65;;;6.70;82.00;;;;;;5113037;28;20491;-70
2022/04/16 05:08:16;;;;;;;2.90;1.58;;;6.70;82.00;;;;;;5095158;28;20508;-70
2022/04/16 05:10:42;;;;;;;2.25;1.50;;;6.70;82.00;;;;;;5113321;28;20047;-70
2022/04/16 05:13:08;;;;;;;4.40;2.00;;;6.80;82.10;;;;;;5113549;28;20111;-71
2022/04/16 05:15:34;;;;;;;3.42;1.85;;;6.70;82.00;;;;;;5017209;28;20048;-72
2022/04/16 05:18:05;;;;;;;2.00;1.38;;;6.80;82.10;;;;;;5034471;28;20037;-72
2022/04/16 05:20:30;;;;;;;2.50;1.60;;;6.80;82.10;;;;;;5034775;28;20482;-70
2022/04/16 05:22:56;;;;;;;2.13;1.48;;;6.80;82.10;;;;;;5050583;28;20052;-71
2022/04/16 05:25:22;;;;;;;3.03;1.60;;;6.80;82.10;;;;;;5017389;28;20045;-71
2022/04/16 05:27:48;;;;;;;2.70;1.58;;;6.90;82.20;;;;;;5050915;28;20594;-70
2022/04/16 05:30:21;;;;;;;3.92;2.03;;;6.90;82.10;;;;;;5017267;28;20094;-70
2022/04/16 05:32:49;;;;;;;3.75;1.67;;;6.90;82.10;;;;;;5050917;28;20044;-71
2022/04/16 05:35:16;;;;;;;3.40;1.73;;;7.00;82.10;;;;;;5050527;28;20136;-71
2022/04/16 05:37:42;;;;;;;2.28;1.33;;;6.90;82.10;;;;;;5016934;28;20917;-69
2022/04/16 05:40:09;;;;;;;3.42;1.85;;;7.00;82.20;;;;;;5050244;28;20552;-70
2022/04/16 05:42:40;;;;;;;3.10;1.70;;;7.00;82.10;;;;;;5050003;28;20036;-70
2022/04/16 05:45:07;;;;;;;2.25;1.33;;;7.10;82.20;;;;;;5050216;28;20041;-71
2022/04/16 05:47:33;;;;;;;3.05;1.67;;;7.10;82.10;;;;;;5089684;28;20039;-71
2022/04/16 05:49:59;;;;;;;2.95;1.73;;;7.20;82.10;;;;;;5112962;28;20485;-71
2022/04/16 05:52:25;;;;;;;3.70;1.80;;;7.20;82.00;;;;;;5112730;28;20047;-70
2022/04/16 05:54:52;;;;;;;2.97;1.95;;;7.20;82.00;;;;;;5113351;28;20032;-72
2022/04/16 05:57:19;;;;;;;3.17;1.95;;;7.30;82.00;;;;;;5094830;28;20396;-70
2022/04/16 05:59:45;;;;;;;3.10;1.60;;;7.30;82.00;;;;;;5113084;28;20043;-71
2022/04/16 06:02:12;;;;;;;2.85;1.73;;;7.40;82.00;;;;;;5112726;28;20044;-71
2022/04/16 06:04:37;;;;;;;2.58;1.60;;;7.50;81.90;;;;;;5112505;28;20044;-71
2022/04/16 06:07:03;;;;;;;2.38;1.50;;;7.40;81.80;;;;;;5112693;28;20126;-70
2022/04/16 06:09:29;;;;;;;3.60;1.90;;;7.60;81.90;;;;;;5112826;28;20039;-71
2022/04/16 06:12:03;;;;;;;3.42;2.00;;;7.60;81.70;;;;;;5112551;28;20078;-71
2022/04/16 06:14:30;;;;;;;2.50;1.67;;;7.70;81.80;;;;;;5076499;28;20454;-71
2022/04/16 06:16:56;;;;;;;3.35;1.90;;;7.70;81.70;;;;;;5094537;28;20031;-71
2022/04/16 06:19:23;;;;;;;3.35;1.90;;;7.80;81.60;;;;;;5115491;28;20036;-71
2022/04/16 06:21:49;;;;;;;3.05;1.92;;;7.80;81.60;;;;;;5116053;28;20039;-71
2022/04/16 06:24:15;;;;;;;4.38;2.45;;;7.80;81.60;;;;;;5115797;28;20048;-71
2022/04/16 06:26:42;;;;;;;3.95;2.13;;;7.90;81.50;;;;;;5116395;28;20034;-72
2022/04/16 06:29:08;;;;;;;4.80;2.67;;;8.00;81.50;;;;;;5115918;28;20485;-71
2022/04/16 06:31:34;;;;;;;4.75;2.08;;;8.10;81.50;;;;;;5115810;28;20038;-70
2022/04/16 06:33:59;;;;;;;4.15;2.20;;;8.10;81.50;;;;;;5115725;28;20059;-71
2022/04/16 06:36:25;;;;;;;3.05;1.90;;;8.20;81.60;;;;;;5097347;28;20100;-71
2022/04/16 06:38:51;;;;;;;3.20;1.98;;;8.20;81.50;;;;;;5097421;28;20043;-71
2022/04/16 06:41:17;;;;;;;3.67;2.05;;;8.30;81.50;;;;;;5116067;28;20070;-71
2022/04/16 06:43:43;;;;;;;3.63;2.17;;;8.30;81.50;;;;;;5115452;28;20130;-71
2022/04/16 06:46:09;;;;;;;4.68;2.60;;;8.40;81.50;;;;;;5097273;28;20126;-72
2022/04/16 06:48:34;;;;;;;3.80;2.10;;;8.40;81.50;;;;;;5116137;28;20143;-71
2022/04/16 06:51:00;;;;;;;3.83;2.00;;;8.40;81.50;;;;;;5115416;28;20108;-71
2022/04/16 06:53:27;;;;;;;4.45;2.45;;;8.50;81.50;;;;;;5115625;28;20043;-71
2022/04/16 06:55:53;;;;;;;3.97;2.28;;;8.50;81.50;;;;;;5097162;28;20512;-71
2022/04/16 06:58:18;;;;;;;3.00;1.90;;;8.60;81.50;;;;;;5115454;28;20539;-71
2022/04/16 07:00:44;;;;;;;4.20;1.95;;;8.70;81.50;;;;;;5115310;28;20043;-71
2022/04/16 07:03:10;;;;;;;3.78;2.20;;;8.70;81.50;;;;;;5115861;28;20461;-71
2022/04/16 07:05:36;;;;;;;4.35;2.33;;;8.80;81.50;;;;;;5115598;28;20582;-71
2022/04/16 07:08:01;;;;;;;3.38;2.03;;;8.80;81.40;;;;;;5115314;28;20048;-71
2022/04/16 07:10:27;;;;;;;3.15;1.90;;;8.90;81.40;;;;;;5115207;28;20074;-71
2022/04/16 07:12:53;;;;;;;4.07;2.35;;;8.90;81.40;;;;;;5115252;28;20054;-71
2022/04/16 07:15:18;;;;;;;3.42;1.98;;;9.00;81.30;;;;;;5115442;28;20552;-71
2022/04/16 07:17:45;;;;;;;3.63;2.05;;;9.10;81.20;;;;;;5115560;28;20127;-71
2022/04/16 07:20:11;;;;;;;3.88;2.20;;;9.10;81.10;;;;;;5115153;28;20071;-71
2022/04/16 07:22:37;;;;;;;4.88;2.50;;;9.20;81.00;;;;;;5096688;28;20469;-71
2022/04/16 07:25:04;;;;;;;4.00;2.30;;;9.30;81.00;;;;;;5115058;28;20421;-71
2022/04/16 07:27:31;;;;;;;3.65;2.00;;;9.40;81.00;;;;;;5114878;28;20063;-71
2022/04/16 07:29:58;;;;;;;3.30;1.92;;;9.40;80.90;;;;;;5096612;28;20035;-71
2022/04/16 07:32:25;;;;;;;3.65;2.08;;;9.40;81.00;;;;;;5096869;28;20493;-71
2022/04/16 07:34:51;;;;;;;3.03;1.95;;;9.50;80.80;;;;;;5114691;28;20397;-71
2022/04/16 07:37:17;;;;;;;3.17;1.90;;;9.50;80.80;;;;;;5079790;28;20047;-70
2022/04/16 07:39:43;;;;;;;3.90;2.10;;;9.60;80.80;;;;;;5096546;28;20078;-70
2022/04/16 07:42:09;;;;;;;3.97;2.13;;;9.70;80.80;;;;;;5114759;28;20043;-70
2022/04/16 07:44:35;;;;;;;4.10;2.13;;;9.70;80.70;;;;;;5114684;28;20040;-70
2022/04/16 07:47:01;;;;;;;4.60;2.22;;;9.70;80.70;;;;;;5079938;28;20051;-70
2022/04/16 07:49:27;;;;;;;3.55;2.08;;;9.80;80.60;;;;;;5096832;28;20047;-70
2022/04/16 07:51:53;;;;;;;3.15;2.35;;;9.90;80.60;;;;;;5114741;28;20035;-70
2022/04/16 07:54:18;;;;;;;2.58;1.75;;;10.00;80.60;;;;;;5114819;28;20480;-70
2022/04/16 07:56:44;;;;;;;3.33;1.83;;;10.10;80.40;;;;;;5114485;28;20526;-70
2022/04/16 07:59:11;;;;;;;3.45;2.08;;;10.30;80.30;;;;;;5114584;28;20046;-70
2022/04/16 08:01:37;;;;;;;4.00;2.05;;;10.40;80.10;;;;;;5114608;28;20043;-70
2022/04/16 08:04:03;;;;;;;4.10;2.10;;;10.60;79.80;;;;;;5114460;28;20097;-70
2022/04/16 08:06:29;;;;;;;2.58;1.85;;;10.70;79.60;;;;;;5114521;28;20035;-70
2022/04/16 08:09:00;;;;;;;3.67;1.90;;;10.90;79.40;;;;;;5114245;28;20044;-70
2022/04/16 08:11:29;;;;;;;3.85;2.28;;;11.10;79.20;;;;;;5114084;28;20071;-70
2022/04/16 08:13:55;;;;;;;3.03;1.75;;;11.20;79.00;;;;;;5095815;28;20039;-70
2022/04/16 08:16:21;;;;;;;3.15;1.70;;;11.40;78.90;;;;;;5114805;28;20036;-70
2022/04/16 08:18:46;;;;;;;2.83;1.70;;;11.60;78.70;;;;;;5114534;28;20038;-70
2022/04/16 08:21:12;;;;;;;3.22;2.03;;;11.80;78.40;;;;;;5095812;28;20397;-70
2022/04/16 08:23:44;;;;;;;2.72;1.67;;;11.90;78.20;;;;;;5113939;28;20040;-70
2022/04/16 08:26:11;;;;;;;3.70;2.05;;;12.00;78.10;;;;;;5113906;28;20042;-70
2022/04/16 08:28:37;;;;;;;3.40;2.10;;;12.10;78.20;;;;;;5113943;28;20078;-70
2022/04/16 08:31:02;;;;;;;2.95;1.90;;;12.30;77.80;;;;;;5113705;28;20078;-70
2022/04/16 08:33:28;;;;;;;2.78;1.70;;;12.40;77.80;;;;;;5114364;28;20039;-70
2022/04/16 08:35:54;;;;;;;2.17;1.50;;;12.60;77.90;;;;;;5113794;28;20040;-70
2022/04/16 08:38:20;;;;;;;3.00;1.75;;;12.70;77.80;;;;;;5113778;28;20397;-71
2022/04/16 08:40:47;;;;;;;2.40;1.50;;;12.70;77.50;;;;;;5094319;28;20040;-70
2022/04/16 08:43:14;;;;;;;2.95;2.00;;;12.90;77.40;;;;;;5113705;28;20492;-70
2022/04/16 08:45:41;;;;;;;3.13;1.95;;;12.90;77.40;;;;;;5114117;28;20139;-70
2022/04/16 08:48:08;;;;;;;2.72;2.00;;;13.00;77.20;;;;;;5095272;28;20047;-70
2022/04/16 08:50:34;;;;;;;3.00;1.77;;;13.00;77.40;;;;;;5113504;28;20046;-69
2022/04/16 08:53:01;;;;;;;2.83;1.75;;;13.10;77.50;;;;;;5113891;28;20032;-70
2022/04/16 08:55:28;;;;;;;2.50;1.50;;;13.20;77.50;;;;;;5095515;28;20035;-69
2022/04/16 08:57:55;;;;;;;3.10;2.10;;;13.30;77.40;;;;;;5095507;28;20115;-69
2022/04/16 09:00:21;;;;;;;2.60;1.83;;;13.40;77.20;;;;;;5113567;28;20031;-69
2022/04/16 09:03:04;;;;;;;2.33;1.80;;;13.40;77.00;;;;;;5113147;28;20047;-69
2022/04/16 09:05:30;;;;;;;2.55;1.77;;;13.40;77.30;;;;;;5094398;28;20024;-69
2022/04/16 09:07:57;;;;;;;2.83;1.88;;;13.30;77.50;;;;;;5095335;28;20123;-69
2022/04/16 09:10:28;;;;;;;2.85;1.80;;;13.40;77.60;;;;;;5111572;28;20096;-69
2022/04/16 09:12:57;;;;;;;3.38;1.80;;;13.40;77.40;;;;;;5113503;28;20047;-69
2022/04/16 09:15:24;;;;;;;2.63;1.65;;;13.50;77.30;;;;;;5113489;28;20067;-69
2022/04/16 09:18:03;;;;;;;2.85;1.80;;;13.60;77.20;;;;;;5113468;28;20114;-69
2022/04/16 09:20:34;;;;;;;2.40;1.50;;;13.80;76.70;;;;;;5113708;28;20465;-69
2022/04/16 09:23:01;;;;;;;3.20;1.75;;;13.80;76.70;;;;;;5113414;28;20039;-69
2022/04/16 09:25:30;;;;;;;3.30;1.60;;;13.90;76.60;;;;;;5078046;28;20118;-69
2022/04/16 09:27:56;;;;;;;3.58;1.85;;;13.80;76.80;;;;;;5113669;28;20413;-69
2022/04/16 09:30:24;;;;;;;2.28;1.55;;;13.80;77.00;;;;;;5113266;28;20513;-69
2022/04/16 09:32:52;;;;;;;3.65;2.08;;;13.80;76.80;;;;;;5113642;28;20052;-69
2022/04/16 09:35:36;;;;;;;2.95;1.90;;;13.90;76.90;;;;;;5095221;28;20043;-69
2022/04/16 09:38:04;;;;;;;1.95;1.50;;;14.10;76.50;;;;;;5112311;28;20104;-69
2022/04/16 09:40:32;;;;;;;2.95;1.80;;;14.10;76.20;;;;;;5112942;28;20553;-69
2022/04/16 09:43:01;;;;;;;3.65;1.80;;;14.30;76.00;;;;;;5111664;28;20485;-69
2022/04/16 09:45:28;;;;;;;2.53;1.80;;;14.40;75.80;;;;;;5113356;28;20048;-69
2022/04/16 09:47:54;;;;;;;2.05;1.48;;;14.50;75.60;;;;;;5094405;28;20392;-69
2022/04/16 09:50:23;;;;;;;2.50;1.75;;;14.60;75.40;;;;;;5113137;28;20093;-69
2022/04/16 09:52:52;;;;;;;2.85;1.88;;;14.70;75.10;;;;;;5112233;28;20043;-69
2022/04/16 09:55:21;;;;;;;2.47;1.80;;;14.80;75.00;;;;;;5112819;28;20051;-69
2022/04/16 09:57:52;;;;;;;2.17;1.50;;;14.70;75.00;;;;;;5112757;28;20426;-69
2022/04/16 10:00:18;;;;;;;2.17;1.70;;;14.70;75.10;;;;;;5112653;28;20477;-69
2022/04/16 10:02:45;;;;;;;3.03;1.80;;;14.60;75.20;;;;;;5112821;28;20046;-70
2022/04/16 10:05:11;;;;;;;2.60;1.75;;;14.70;75.30;;;;;;5112823;28;20043;-70
2022/04/16 10:07:37;;;;;;;2.03;1.60;;;14.80;74.90;;;;;;5112442;28;20044;-69
2022/04/16 10:10:17;;;;;;;1.88;1.50;;;14.80;74.80;;;;;;5112414;28;20044;-70
2022/04/16 10:15:24;;;;;;;2.65;1.67;;;14.80;74.60;;;;;;5112547;28;20568;-69
2022/04/16 10:17:51;;;;;;;1.80;1.33;;;14.70;74.90;;;;;;5112448;28;20039;-71
2022/04/16 10:20:19;;;;;;;1.75;1.35;;;14.70;75.00;;;;;;5112318;28;20132;-70
2022/04/16 10:22:53;;;;;;;2.42;1.55;;;14.60;74.90;;;;;;5113091;28;20035;-70
2022/04/16 10:25:34;;;;;;;2.92;1.73;;;14.60;74.90;;;;;;5092871;28;20527;-71
2022/04/16 10:28:04;;;;;;;2.20;1.48;;;14.60;74.80;;;;;;5112736;28;20032;-70
2022/04/16 10:30:50;;;;;;;2.50;1.67;;;14.70;74.70;;;;;;5094056;28;20561;-70
2022/04/16 10:33:19;;;;;;;1.85;1.52;;;14.70;74.00;;;;;;5110457;28;20036;-71
2022/04/16 10:36:09;;;;;;;1.60;1.40;;;14.80;74.30;;;;;;5112089;28;20032;-71
2022/04/16 10:38:38;;;;;;;2.42;1.60;;;14.80;73.90;;;;;;5110426;28;20085;-70
2022/04/16 10:41:14;;;;;;;2.15;1.30;;;14.90;73.70;;;;;;5112036;28;20506;-70
2022/04/16 10:43:40;;;;;;;1.73;1.40;;;14.90;73.50;;;;;;5092970;28;20089;-70
2022/04/16 10:46:08;;;;;;;1.60;1.27;;;15.00;73.20;;;;;;5112302;28;20083;-71
2022/04/16 10:48:37;;;;;;;1.20;1.10;;;15.20;73.00;;;;;;5112532;28;20118;-70
2022/04/16 10:51:05;;;;;;;1.20;0.90;;;15.10;72.70;;;;;;5112243;28;20481;-71
2022/04/16 10:53:33;;;;;;;1.92;1.17;;;15.20;72.60;;;;;;5111898;28;20044;-71
2022/04/16 10:56:11;;;;;;;1.45;0.90;;;15.30;72.30;;;;;;5111939;28;20051;-70
2022/04/16 10:58:40;;;;;;;1.83;1.00;;;15.50;71.70;;;;;;5092038;28;20050;-70
2022/04/16 11:01:09;;;;;;;1.00;0.88;;;15.50;71.30;;;;;;5110178;28;20051;-70
2022/04/16 11:03:44;;;;;;;1.02;0.85;;;15.50;71.10;;;;;;5094204;28;20119;-70
2022/04/16 11:06:10;;;;;;;0.80;0.80;;;15.50;71.00;;;;;;5115507;28;20035;-70
2022/04/16 11:08:39;;;;;;;1.83;0.90;;;15.60;70.90;;;;;;5115145;28;20173;-70
2022/04/16 11:11:05;;;;;;;1.38;0.90;;;15.50;70.70;;;;;;5115651;28;20044;-70
2022/04/16 11:13:32;;;;;;;0.90;0.80;;;15.60;70.70;;;;;;5115139;28;20046;-70
2022/04/16 11:15:58;;;;;;;1.38;1.00;;;15.60;70.70;;;;;;5115475;28;20039;-70
2022/04/16 11:18:26;;;;;;;1.90;1.10;;;15.70;70.40;;;;;;5115605;28;20031;-70
2022/04/16 11:20:55;;;;;;;1.23;1.08;;;15.70;70.30;;;;;;5115410;28;20043;-71
2022/04/16 11:23:26;;;;;;;1.65;1.00;;;15.70;70.00;;;;;;5114912;28;20044;-71
2022/04/16 11:36:39;;;;;;;1.25;0.90;;;15.90;69.70;;;;;;5112770;28;20048;-71
2022/04/16 11:39:04;;;;;;;1.30;1.00;;;16.00;69.20;;;;;;5114525;28;20392;-70
2022/04/16 11:41:30;;;;;;;1.10;0.90;;;16.10;68.70;;;;;;5114488;28;20043;-71
2022/04/16 11:43:58;;;;;;;0.63;0.63;;;16.00;68.50;;;;;;5114525;28;20084;-71
2022/04/16 11:46:23;;;;;;;1.08;0.90;;;16.10;68.50;;;;;;5114924;28;20493;-71
2022/04/16 11:48:50;;;;;;;1.30;0.90;;;16.20;68.30;;;;;;5114478;28;20051;-71
2022/04/16 11:51:18;;;;;;;0.77;0.77;;;16.20;68.00;;;;;;5114510;28;20047;-71
2022/04/16 11:53:45;;;;;;;1.05;0.85;;;16.20;67.90;;;;;;5114719;28;20040;-71
2022/04/16 11:56:11;;;;;;;1.45;1.00;;;16.30;67.80;;;;;;5112791;28;20044;-71
2022/04/16 11:58:36;;;;;;;1.02;0.82;;;16.30;67.40;;;;;;5115045;28;20047;-71
2022/04/16 12:01:03;;;;;;;1.55;0.98;;;16.20;67.30;;;;;;5114900;28;20461;-72
2022/04/16 12:03:38;;;;;;;1.35;0.98;;;16.20;67.20;;;;;;5096141;28;20071;-71
2022/04/16 12:06:09;;;;;;;0.90;0.80;;;16.20;66.90;;;;;;5095637;28;20047;-71
2022/04/16 12:08:36;;;;;;;1.27;1.00;;;16.30;66.90;;;;;;5097247;28;20110;-72
2022/04/16 12:11:03;;;;;;;1.30;0.98;;;16.40;66.90;;;;;;5113996;28;20089;-71
2022/04/16 12:13:38;;;;;;;1.15;1.00;;;16.40;66.80;;;;;;5114139;28;20041;-71
2022/04/16 12:16:06;;;;;;;1.25;0.77;;;16.30;66.50;;;;;;5113169;28;20023;-70
2022/04/16 12:18:36;;;;;;;0.60;0.60;;;16.40;66.40;;;;;;5114117;28;20039;-70
2022/04/16 12:21:08;;;;;;;1.08;0.80;;;16.50;66.30;;;;;;5114710;28;20057;-70
2022/04/16 12:23:37;;;;;;;0.85;0.65;;;16.60;66.00;;;;;;5114039;28;20039;-71
2022/04/16 12:26:06;;;;;;;0.85;0.80;;;16.50;65.80;;;;;;5114063;28;20038;-71
2022/04/16 12:28:38;;;;;;;2.05;0.80;;;16.50;65.80;;;;;;5095877;28;20040;-71
2022/04/16 12:31:03;;;;;;;0.85;0.70;;;16.50;65.80;;;;;;5095493;28;20063;-71
2022/04/16 12:33:29;;;;;;;1.08;0.80;;;16.50;65.60;;;;;;5114239;28;20508;-71
2022/04/16 12:35:56;;;;;;;1.25;0.90;;;16.60;65.20;;;;;;5113657;28;20111;-71
2022/04/16 12:38:24;;;;;;;0.80;0.80;;;16.70;64.90;;;;;;5113673;28;20561;-70
2022/04/16 12:40:51;;;;;;;0.77;0.70;;;16.70;64.70;;;;;;5114010;28;20126;-70
2022/04/16 12:43:17;;;;;;;1.20;0.93;;;16.70;64.50;;;;;;5113630;28;20118;-71
2022/04/16 12:45:43;;;;;;;1.25;0.88;;;16.70;64.30;;;;;;5113686;28;20181;-71
2022/04/16 12:48:09;;;;;;;0.70;0.70;;;16.70;64.10;;;;;;5095628;28;20046;-71
2022/04/16 12:50:35;;;;;;;1.33;0.70;;;16.60;63.90;;;;;;5113648;28;20035;-71
2022/04/16 12:53:04;;;;;;;0.70;0.63;;;16.60;64.10;;;;;;5095500;28;20431;-70
2022/04/16 12:55:30;;;;;;;1.38;0.80;;;16.60;64.20;;;;;;5114346;28;20035;-70
2022/04/16 12:57:56;;;;;;;0.70;0.70;;;16.50;64.10;;;;;;5113461;28;20097;-70
2022/04/16 13:00:23;;;;;;;0.88;0.70;;;16.60;63.90;;;;;;5113523;28;20039;-70
2022/04/16 13:02:49;;;;;;;0.90;0.70;;;16.60;63.50;;;;;;5113561;28;20116;-70
2022/04/16 13:05:16;;;;;;;0.93;0.77;;;16.60;63.40;;;;;;5113519;28;20481;-70
2022/04/16 13:07:44;;;;;;;1.23;0.80;;;16.60;63.50;;;;;;5113511;28;20164;-69
2022/04/16 13:10:12;;;;;;;1.35;0.90;;;16.60;63.20;;;;;;5113349;28;20552;-70
2022/04/16 13:12:38;;;;;;;1.00;0.90;;;16.60;62.90;;;;;;5113229;28;20050;-69
2022/04/16 13:15:07;;;;;;;1.02;0.70;;;16.60;62.80;;;;;;5113037;28;20039;-70
2022/04/16 13:17:33;;;;;;;1.38;0.80;;;16.60;62.70;;;;;;5111875;28;20495;-69
2022/04/16 13:20:01;;;;;;;0.77;0.77;;;16.50;62.60;;;;;;5113075;28;20126;-70